sensor_id;sensor_type;location;lat;lon;timestamp;P1;durP1;ratioP1;P2;durP2;ratioP2
69837;SDS011;57135;51.992;4.476;2023-02-28T00:00:25;8.83;;;8.40;;
69837;SDS011;57135;51.992;4.476;2023-02-28T00:02:51;8.60;;;8.29;;
69837;SDS011;57135;51.992;4.476;2023-02-28T00:05:18;8.75;;;8.47;;
69837;SDS011;57135;51.992;4.476;2023-02-28T00:07:45;9.50;;;9.08;;
69837;SDS011;57135;51.992;4.476;2023-02-28T00:10:12;10.83;;;10.14;;
69837;SDS011;57135;51.992;4.476;2023-02-28T00:12:45;12.06;;;11.21;;
69837;SDS011;57135;51.992;4.476;2023-02-28T00:15:12;13.72;;;12.43;;
69837;SDS011;57135;51.992;4.476;2023-02-28T00:17:37;14.54;;;13.14;;
69837;SDS011;57135;51.992;4.476;2023-02-28T00:20:03;15.05;;;13.75;;
69837;SDS011;57135;51.992;4.476;2023-02-28T00:22:35;16.20;;;14.39;;
69837;SDS011;57135;51.992;4.476;2023-02-28T00:25:01;15.55;;;13.81;;
69837;SDS011;57135;51.992;4.476;2023-02-28T00:27:26;14.89;;;13.48;;
69837;SDS011;57135;51.992;4.476;2023-02-28T00:29:52;14.84;;;13.35;;
69837;SDS011;57135;51.992;4.476;2023-02-28T00:32:19;13.97;;;12.62;;
69837;SDS011;57135;51.992;4.476;2023-02-28T00:34:44;12.28;;;11.18;;
69837;SDS011;57135;51.992;4.476;2023-02-28T00:37:10;10.91;;;10.17;;
69837;SDS011;57135;51.992;4.476;2023-02-28T00:39:37;10.32;;;9.70;;
69837;SDS011;57135;51.992;4.476;2023-02-28T00:42:03;9.18;;;8.78;;
69837;SDS011;57135;51.992;4.476;2023-02-28T00:44:30;8.05;;;7.67;;
69837;SDS011;57135;51.992;4.476;2023-02-28T00:46:56;7.05;;;6.81;;
69837;SDS011;57135;51.992;4.476;2023-02-28T00:49:22;6.01;;;5.88;;
69837;SDS011;57135;51.992;4.476;2023-02-28T00:51:48;6.11;;;5.99;;
69837;SDS011;57135;51.992;4.476;2023-02-28T00:54:14;5.86;;;5.75;;
69837;SDS011;57135;51.992;4.476;2023-02-28T00:56:39;5.22;;;5.17;;
69837;SDS011;57135;51.992;4.476;2023-02-28T00:59:05;4.94;;;4.91;;
69837;SDS011;57135;51.992;4.476;2023-02-28T01:01:30;4.89;;;4.84;;
69837;SDS011;57135;51.992;4.476;2023-02-28T01:03:56;4.90;;;4.87;;
69837;SDS011;57135;51.992;4.476;2023-02-28T01:06:21;4.50;;;4.47;;
69837;SDS011;57135;51.992;4.476;2023-02-28T01:08:47;4.69;;;4.68;;
69837;SDS011;57135;51.992;4.476;2023-02-28T01:11:13;5.02;;;5.00;;
69837;SDS011;57135;51.992;4.476;2023-02-28T01:13:41;4.90;;;4.86;;
69837;SDS011;57135;51.992;4.476;2023-02-28T01:16:07;4.77;;;4.75;;
69837;SDS011;57135;51.992;4.476;2023-02-28T01:18:33;4.97;;;4.95;;
69837;SDS011;57135;51.992;4.476;2023-02-28T01:21:02;4.62;;;4.61;;
69837;SDS011;57135;51.992;4.476;2023-02-28T01:23:31;4.60;;;4.58;;
69837;SDS011;57135;51.992;4.476;2023-02-28T01:26:02;4.96;;;4.93;;
69837;SDS011;57135;51.992;4.476;2023-02-28T01:28:32;5.05;;;5.02;;
69837;SDS011;57135;51.992;4.476;2023-02-28T01:30:57;4.69;;;4.67;;
69837;SDS011;57135;51.992;4.476;2023-02-28T01:33:23;4.92;;;4.87;;
69837;SDS011;57135;51.992;4.476;2023-02-28T01:35:48;4.62;;;4.60;;
69837;SDS011;57135;51.992;4.476;2023-02-28T01:38:14;4.52;;;4.50;;
69837;SDS011;57135;51.992;4.476;2023-02-28T01:40:39;4.77;;;4.74;;
69837;SDS011;57135;51.992;4.476;2023-02-28T01:43:09;4.65;;;4.63;;
69837;SDS011;57135;51.992;4.476;2023-02-28T01:45:46;4.59;;;4.58;;
69837;SDS011;57135;51.992;4.476;2023-02-28T01:48:12;4.52;;;4.52;;
69837;SDS011;57135;51.992;4.476;2023-02-28T01:50:39;4.52;;;4.51;;
69837;SDS011;57135;51.992;4.476;2023-02-28T01:53:10;4.55;;;4.52;;
69837;SDS011;57135;51.992;4.476;2023-02-28T01:55:40;4.77;;;4.67;;
69837;SDS011;57135;51.992;4.476;2023-02-28T01:58:11;4.85;;;4.81;;
69837;SDS011;57135;51.992;4.476;2023-02-28T02:00:36;4.81;;;4.78;;
69837;SDS011;57135;51.992;4.476;2023-02-28T02:03:08;4.74;;;4.70;;
69837;SDS011;57135;51.992;4.476;2023-02-28T02:05:35;5.00;;;4.98;;
69837;SDS011;57135;51.992;4.476;2023-02-28T02:08:09;5.79;;;5.78;;
69837;SDS011;57135;51.992;4.476;2023-02-28T02:10:41;6.65;;;6.58;;
69837;SDS011;57135;51.992;4.476;2023-02-28T02:18:51;8.50;;;8.33;;
69837;SDS011;57135;51.992;4.476;2023-02-28T02:40:58;8.09;;;8.03;;
69837;SDS011;57135;51.992;4.476;2023-02-28T02:43:39;8.27;;;8.20;;
69837;SDS011;57135;51.992;4.476;2023-02-28T02:46:12;9.34;;;9.22;;
69837;SDS011;57135;51.992;4.476;2023-02-28T02:48:45;10.62;;;10.47;;
69837;SDS011;57135;51.992;4.476;2023-02-28T02:51:13;11.29;;;10.94;;
69837;SDS011;57135;51.992;4.476;2023-02-28T02:53:44;11.58;;;11.09;;
69837;SDS011;57135;51.992;4.476;2023-02-28T02:56:14;10.29;;;9.96;;
69837;SDS011;57135;51.992;4.476;2023-02-28T02:58:44;9.07;;;8.85;;
69837;SDS011;57135;51.992;4.476;2023-02-28T03:01:15;8.11;;;8.03;;
69837;SDS011;57135;51.992;4.476;2023-02-28T03:03:53;8.13;;;8.06;;
69837;SDS011;57135;51.992;4.476;2023-02-28T03:06:21;8.73;;;8.63;;
69837;SDS011;57135;51.992;4.476;2023-02-28T03:08:46;8.60;;;8.46;;
69837;SDS011;57135;51.992;4.476;2023-02-28T03:11:12;9.52;;;9.37;;
69837;SDS011;57135;51.992;4.476;2023-02-28T03:13:50;10.59;;;10.31;;
69837;SDS011;57135;51.992;4.476;2023-02-28T03:19:40;10.80;;;10.60;;
69837;SDS011;57135;51.992;4.476;2023-02-28T03:25:08;10.91;;;10.77;;
69837;SDS011;57135;51.992;4.476;2023-02-28T03:27:48;10.78;;;10.48;;
69837;SDS011;57135;51.992;4.476;2023-02-28T03:31:01;10.27;;;10.04;;
69837;SDS011;57135;51.992;4.476;2023-02-28T03:33:50;10.43;;;10.24;;
69837;SDS011;57135;51.992;4.476;2023-02-28T03:36:30;9.62;;;9.43;;
69837;SDS011;57135;51.992;4.476;2023-02-28T03:39:10;9.48;;;9.31;;
69837;SDS011;57135;51.992;4.476;2023-02-28T03:41:47;9.30;;;9.18;;
69837;SDS011;57135;51.992;4.476;2023-02-28T03:44:21;8.50;;;8.38;;
69837;SDS011;57135;51.992;4.476;2023-02-28T03:47:00;8.45;;;8.41;;
69837;SDS011;57135;51.992;4.476;2023-02-28T03:49:59;8.40;;;8.38;;
69837;SDS011;57135;51.992;4.476;2023-02-28T03:52:40;8.55;;;8.51;;
69837;SDS011;57135;51.992;4.476;2023-02-28T03:55:14;8.25;;;8.23;;
69837;SDS011;57135;51.992;4.476;2023-02-28T04:00:39;8.31;;;8.30;;
69837;SDS011;57135;51.992;4.476;2023-02-28T04:03:11;8.19;;;8.16;;
69837;SDS011;57135;51.992;4.476;2023-02-28T04:08:32;8.29;;;8.28;;
69837;SDS011;57135;51.992;4.476;2023-02-28T04:11:01;8.40;;;8.39;;
69837;SDS011;57135;51.992;4.476;2023-02-28T04:13:31;8.82;;;8.82;;
69837;SDS011;57135;51.992;4.476;2023-02-28T04:15:56;8.94;;;8.93;;
69837;SDS011;57135;51.992;4.476;2023-02-28T04:18:22;8.57;;;8.57;;
69837;SDS011;57135;51.992;4.476;2023-02-28T04:20:48;8.88;;;8.87;;
69837;SDS011;57135;51.992;4.476;2023-02-28T04:23:13;8.70;;;8.70;;
69837;SDS011;57135;51.992;4.476;2023-02-28T04:25:39;9.25;;;9.25;;
69837;SDS011;57135;51.992;4.476;2023-02-28T04:28:05;8.95;;;8.95;;
69837;SDS011;57135;51.992;4.476;2023-02-28T04:30:31;8.76;;;8.76;;
69837;SDS011;57135;51.992;4.476;2023-02-28T04:32:57;8.97;;;8.97;;
69837;SDS011;57135;51.992;4.476;2023-02-28T04:35:23;8.72;;;8.71;;
69837;SDS011;57135;51.992;4.476;2023-02-28T04:37:49;8.62;;;8.61;;
69837;SDS011;57135;51.992;4.476;2023-02-28T04:40:14;8.28;;;8.28;;
69837;SDS011;57135;51.992;4.476;2023-02-28T04:42:40;8.90;;;8.90;;
69837;SDS011;57135;51.992;4.476;2023-02-28T04:45:05;8.24;;;8.24;;
69837;SDS011;57135;51.992;4.476;2023-02-28T04:47:31;8.22;;;8.22;;
69837;SDS011;57135;51.992;4.476;2023-02-28T04:49:57;8.32;;;8.32;;
69837;SDS011;57135;51.992;4.476;2023-02-28T04:52:22;8.13;;;8.13;;
69837;SDS011;57135;51.992;4.476;2023-02-28T04:54:48;8.28;;;8.28;;
69837;SDS011;57135;51.992;4.476;2023-02-28T04:57:14;7.76;;;7.76;;
69837;SDS011;57135;51.992;4.476;2023-02-28T04:59:39;8.37;;;8.37;;
69837;SDS011;57135;51.992;4.476;2023-02-28T05:02:05;8.38;;;8.35;;
69837;SDS011;57135;51.992;4.476;2023-02-28T05:04:34;8.40;;;8.34;;
69837;SDS011;57135;51.992;4.476;2023-02-28T05:07:01;8.07;;;8.06;;
69837;SDS011;57135;51.992;4.476;2023-02-28T05:09:26;8.39;;;8.39;;
69837;SDS011;57135;51.992;4.476;2023-02-28T05:11:53;8.95;;;8.95;;
69837;SDS011;57135;51.992;4.476;2023-02-28T05:14:19;9.15;;;9.11;;
69837;SDS011;57135;51.992;4.476;2023-02-28T05:16:44;9.46;;;9.40;;
69837;SDS011;57135;51.992;4.476;2023-02-28T05:19:10;9.30;;;9.27;;
69837;SDS011;57135;51.992;4.476;2023-02-28T05:21:36;9.62;;;9.60;;
69837;SDS011;57135;51.992;4.476;2023-02-28T05:24:05;10.32;;;10.24;;
69837;SDS011;57135;51.992;4.476;2023-02-28T05:26:34;10.77;;;10.64;;
69837;SDS011;57135;51.992;4.476;2023-02-28T05:29:01;10.19;;;10.18;;
69837;SDS011;57135;51.992;4.476;2023-02-28T05:31:27;10.16;;;10.16;;
69837;SDS011;57135;51.992;4.476;2023-02-28T05:33:52;10.94;;;10.89;;
69837;SDS011;57135;51.992;4.476;2023-02-28T05:36:18;11.60;;;11.47;;
69837;SDS011;57135;51.992;4.476;2023-02-28T05:38:45;12.22;;;12.11;;
69837;SDS011;57135;51.992;4.476;2023-02-28T05:41:12;12.32;;;12.30;;
69837;SDS011;57135;51.992;4.476;2023-02-28T05:43:37;12.93;;;12.72;;
69837;SDS011;57135;51.992;4.476;2023-02-28T05:46:04;12.92;;;12.73;;
69837;SDS011;57135;51.992;4.476;2023-02-28T05:48:35;12.57;;;12.43;;
69837;SDS011;57135;51.992;4.476;2023-02-28T05:51:01;12.79;;;12.62;;
69837;SDS011;57135;51.992;4.476;2023-02-28T05:53:28;12.38;;;12.34;;
69837;SDS011;57135;51.992;4.476;2023-02-28T05:55:54;12.61;;;12.46;;
69837;SDS011;57135;51.992;4.476;2023-02-28T05:58:20;12.18;;;12.00;;
69837;SDS011;57135;51.992;4.476;2023-02-28T06:00:45;12.24;;;12.16;;
69837;SDS011;57135;51.992;4.476;2023-02-28T06:03:11;12.33;;;12.25;;
69837;SDS011;57135;51.992;4.476;2023-02-28T06:05:37;11.99;;;11.85;;
69837;SDS011;57135;51.992;4.476;2023-02-28T06:08:03;12.40;;;12.15;;
69837;SDS011;57135;51.992;4.476;2023-02-28T06:10:32;12.54;;;12.27;;
69837;SDS011;57135;51.992;4.476;2023-02-28T06:13:01;12.34;;;12.20;;
69837;SDS011;57135;51.992;4.476;2023-02-28T06:15:30;12.55;;;12.45;;
69837;SDS011;57135;51.992;4.476;2023-02-28T06:17:56;11.93;;;11.87;;
69837;SDS011;57135;51.992;4.476;2023-02-28T06:20:22;11.62;;;11.57;;
69837;SDS011;57135;51.992;4.476;2023-02-28T06:22:48;11.70;;;11.69;;
69837;SDS011;57135;51.992;4.476;2023-02-28T06:25:16;10.72;;;10.72;;
69837;SDS011;57135;51.992;4.476;2023-02-28T06:27:42;9.86;;;9.85;;
69837;SDS011;57135;51.992;4.476;2023-02-28T06:30:08;10.02;;;10.02;;
69837;SDS011;57135;51.992;4.476;2023-02-28T06:32:35;9.57;;;9.56;;
69837;SDS011;57135;51.992;4.476;2023-02-28T06:35:01;9.69;;;9.68;;
69837;SDS011;57135;51.992;4.476;2023-02-28T06:37:27;8.97;;;8.97;;
69837;SDS011;57135;51.992;4.476;2023-02-28T06:39:53;8.53;;;8.50;;
69837;SDS011;57135;51.992;4.476;2023-02-28T06:42:21;8.17;;;8.16;;
69837;SDS011;57135;51.992;4.476;2023-02-28T06:44:50;7.27;;;7.27;;
69837;SDS011;57135;51.992;4.476;2023-02-28T06:47:15;6.82;;;6.82;;
69837;SDS011;57135;51.992;4.476;2023-02-28T06:49:41;6.37;;;6.37;;
69837;SDS011;57135;51.992;4.476;2023-02-28T06:52:06;6.32;;;6.32;;
69837;SDS011;57135;51.992;4.476;2023-02-28T06:54:32;6.12;;;6.12;;
69837;SDS011;57135;51.992;4.476;2023-02-28T06:56:58;6.41;;;6.40;;
69837;SDS011;57135;51.992;4.476;2023-02-28T06:59:23;6.34;;;6.32;;
69837;SDS011;57135;51.992;4.476;2023-02-28T07:01:49;6.60;;;6.60;;
69837;SDS011;57135;51.992;4.476;2023-02-28T07:04:14;6.45;;;6.45;;
69837;SDS011;57135;51.992;4.476;2023-02-28T07:06:40;6.80;;;6.80;;
69837;SDS011;57135;51.992;4.476;2023-02-28T07:09:05;7.18;;;7.18;;
69837;SDS011;57135;51.992;4.476;2023-02-28T07:11:31;7.41;;;7.41;;
69837;SDS011;57135;51.992;4.476;2023-02-28T07:13:57;7.36;;;7.36;;
69837;SDS011;57135;51.992;4.476;2023-02-28T07:16:23;7.51;;;7.50;;
69837;SDS011;57135;51.992;4.476;2023-02-28T07:18:53;6.72;;;6.69;;
69837;SDS011;57135;51.992;4.476;2023-02-28T07:21:20;6.66;;;6.65;;
69837;SDS011;57135;51.992;4.476;2023-02-28T07:23:46;6.82;;;6.81;;
69837;SDS011;57135;51.992;4.476;2023-02-28T07:26:13;6.78;;;6.78;;
69837;SDS011;57135;51.992;4.476;2023-02-28T07:28:43;7.18;;;7.18;;
69837;SDS011;57135;51.992;4.476;2023-02-28T07:31:10;7.13;;;7.13;;
69837;SDS011;57135;51.992;4.476;2023-02-28T07:33:36;7.45;;;7.45;;
69837;SDS011;57135;51.992;4.476;2023-02-28T07:36:04;7.38;;;7.38;;
69837;SDS011;57135;51.992;4.476;2023-02-28T07:38:36;8.06;;;8.06;;
69837;SDS011;57135;51.992;4.476;2023-02-28T07:41:03;7.80;;;7.80;;
69837;SDS011;57135;51.992;4.476;2023-02-28T07:43:29;7.70;;;7.70;;
69837;SDS011;57135;51.992;4.476;2023-02-28T07:45:55;8.10;;;8.10;;
69837;SDS011;57135;51.992;4.476;2023-02-28T07:48:29;7.97;;;7.97;;
69837;SDS011;57135;51.992;4.476;2023-02-28T07:50:55;8.08;;;8.08;;
69837;SDS011;57135;51.992;4.476;2023-02-28T07:53:21;8.39;;;8.39;;
69837;SDS011;57135;51.992;4.476;2023-02-28T07:55:47;8.84;;;8.84;;
69837;SDS011;57135;51.992;4.476;2023-02-28T07:58:13;8.96;;;8.95;;
69837;SDS011;57135;51.992;4.476;2023-02-28T08:00:38;8.98;;;8.98;;
69837;SDS011;57135;51.992;4.476;2023-02-28T08:03:04;9.45;;;9.40;;
69837;SDS011;57135;51.992;4.476;2023-02-28T08:05:29;8.75;;;8.74;;
69837;SDS011;57135;51.992;4.476;2023-02-28T08:07:56;9.33;;;9.33;;
69837;SDS011;57135;51.992;4.476;2023-02-28T08:10:22;8.90;;;8.90;;
69837;SDS011;57135;51.992;4.476;2023-02-28T08:12:49;8.77;;;8.77;;
69837;SDS011;57135;51.992;4.476;2023-02-28T08:15:15;8.83;;;8.83;;
69837;SDS011;57135;51.992;4.476;2023-02-28T08:17:40;8.77;;;8.76;;
69837;SDS011;57135;51.992;4.476;2023-02-28T08:20:06;8.28;;;8.28;;
69837;SDS011;57135;51.992;4.476;2023-02-28T08:22:32;8.20;;;8.20;;
69837;SDS011;57135;51.992;4.476;2023-02-28T08:24:58;8.20;;;8.20;;
69837;SDS011;57135;51.992;4.476;2023-02-28T08:27:24;8.07;;;8.07;;
69837;SDS011;57135;51.992;4.476;2023-02-28T08:29:49;8.34;;;8.34;;
69837;SDS011;57135;51.992;4.476;2023-02-28T08:32:15;8.18;;;8.17;;
69837;SDS011;57135;51.992;4.476;2023-02-28T08:34:43;8.59;;;8.55;;
69837;SDS011;57135;51.992;4.476;2023-02-28T08:37:09;8.37;;;8.36;;
69837;SDS011;57135;51.992;4.476;2023-02-28T08:39:35;8.41;;;8.41;;
69837;SDS011;57135;51.992;4.476;2023-02-28T08:42:01;7.93;;;7.93;;
69837;SDS011;57135;51.992;4.476;2023-02-28T08:44:27;8.47;;;8.47;;
69837;SDS011;57135;51.992;4.476;2023-02-28T08:46:53;8.39;;;8.39;;
69837;SDS011;57135;51.992;4.476;2023-02-28T08:49:18;8.79;;;8.79;;
69837;SDS011;57135;51.992;4.476;2023-02-28T08:54:19;8.90;;;8.90;;
69837;SDS011;57135;51.992;4.476;2023-02-28T08:56:45;9.10;;;9.10;;
69837;SDS011;57135;51.992;4.476;2023-02-28T08:59:12;9.05;;;9.05;;
69837;SDS011;57135;51.992;4.476;2023-02-28T09:01:44;9.16;;;9.16;;
69837;SDS011;57135;51.992;4.476;2023-02-28T09:06:45;9.23;;;9.23;;
69837;SDS011;57135;51.992;4.476;2023-02-28T09:09:10;9.11;;;9.10;;
69837;SDS011;57135;51.992;4.476;2023-02-28T09:11:36;8.86;;;8.86;;
69837;SDS011;57135;51.992;4.476;2023-02-28T09:14:02;8.95;;;8.95;;
69837;SDS011;57135;51.992;4.476;2023-02-28T09:16:31;9.04;;;9.02;;
69837;SDS011;57135;51.992;4.476;2023-02-28T09:18:58;9.00;;;9.00;;
69837;SDS011;57135;51.992;4.476;2023-02-28T09:21:24;8.99;;;8.96;;
69837;SDS011;57135;51.992;4.476;2023-02-28T09:23:49;8.95;;;8.95;;
69837;SDS011;57135;51.992;4.476;2023-02-28T09:28:42;9.23;;;9.22;;
69837;SDS011;57135;51.992;4.476;2023-02-28T09:31:15;9.23;;;9.14;;
69837;SDS011;57135;51.992;4.476;2023-02-28T09:33:46;9.00;;;8.99;;
69837;SDS011;57135;51.992;4.476;2023-02-28T09:36:13;9.68;;;9.68;;
69837;SDS011;57135;51.992;4.476;2023-02-28T09:38:39;10.55;;;10.55;;
69837;SDS011;57135;51.992;4.476;2023-02-28T09:41:13;10.64;;;10.63;;
69837;SDS011;57135;51.992;4.476;2023-02-28T09:43:56;10.85;;;10.85;;
69837;SDS011;57135;51.992;4.476;2023-02-28T09:48:57;11.20;;;11.17;;
69837;SDS011;57135;51.992;4.476;2023-02-28T09:51:36;10.69;;;10.66;;
69837;SDS011;57135;51.992;4.476;2023-02-28T09:54:15;9.59;;;9.59;;
69837;SDS011;57135;51.992;4.476;2023-02-28T09:56:44;8.84;;;8.84;;
69837;SDS011;57135;51.992;4.476;2023-02-28T10:02:04;8.89;;;8.85;;
69837;SDS011;57135;51.992;4.476;2023-02-28T10:04:59;9.03;;;8.96;;
69837;SDS011;57135;51.992;4.476;2023-02-28T10:12:51;8.15;;;8.15;;
69837;SDS011;57135;51.992;4.476;2023-02-28T10:15:21;8.79;;;8.79;;
69837;SDS011;57135;51.992;4.476;2023-02-28T10:17:51;8.95;;;8.95;;
69837;SDS011;57135;51.992;4.476;2023-02-28T10:20:21;9.76;;;9.76;;
69837;SDS011;57135;51.992;4.476;2023-02-28T10:25:45;9.30;;;9.30;;
69837;SDS011;57135;51.992;4.476;2023-02-28T10:28:19;9.24;;;9.16;;
69837;SDS011;57135;51.992;4.476;2023-02-28T10:30:46;9.21;;;9.14;;
69837;SDS011;57135;51.992;4.476;2023-02-28T10:33:16;8.97;;;8.97;;
69837;SDS011;57135;51.992;4.476;2023-02-28T10:35:45;9.46;;;9.46;;
69837;SDS011;57135;51.992;4.476;2023-02-28T10:38:14;9.27;;;9.27;;
69837;SDS011;57135;51.992;4.476;2023-02-28T10:40:43;10.70;;;10.66;;
69837;SDS011;57135;51.992;4.476;2023-02-28T10:43:19;9.87;;;9.83;;
69837;SDS011;57135;51.992;4.476;2023-02-28T10:45:57;7.76;;;7.76;;
69837;SDS011;57135;51.992;4.476;2023-02-28T10:48:29;8.44;;;8.42;;
69837;SDS011;57135;51.992;4.476;2023-02-28T10:50:56;8.05;;;8.05;;
69837;SDS011;57135;51.992;4.476;2023-02-28T11:04:01;6.66;;;6.66;;
69837;SDS011;57135;51.992;4.476;2023-02-28T11:06:30;7.19;;;7.19;;
69837;SDS011;57135;51.992;4.476;2023-02-28T11:08:59;6.84;;;6.84;;
69837;SDS011;57135;51.992;4.476;2023-02-28T11:11:43;7.21;;;7.21;;
69837;SDS011;57135;51.992;4.476;2023-02-28T11:14:21;7.46;;;7.46;;
69837;SDS011;57135;51.992;4.476;2023-02-28T11:16:50;6.61;;;6.61;;
69837;SDS011;57135;51.992;4.476;2023-02-28T11:19:22;6.29;;;6.29;;
69837;SDS011;57135;51.992;4.476;2023-02-28T11:21:59;8.78;;;8.78;;
69837;SDS011;57135;51.992;4.476;2023-02-28T11:24:33;9.81;;;9.81;;
69837;SDS011;57135;51.992;4.476;2023-02-28T11:27:03;8.09;;;8.09;;
69837;SDS011;57135;51.992;4.476;2023-02-28T11:29:32;8.62;;;8.62;;
69837;SDS011;57135;51.992;4.476;2023-02-28T11:34:31;5.71;;;5.71;;
69837;SDS011;57135;51.992;4.476;2023-02-28T11:36:58;5.67;;;5.67;;
69837;SDS011;57135;51.992;4.476;2023-02-28T11:39:25;5.49;;;5.49;;
69837;SDS011;57135;51.992;4.476;2023-02-28T11:44:47;4.66;;;4.66;;
69837;SDS011;57135;51.992;4.476;2023-02-28T11:52:53;5.11;;;5.11;;
69837;SDS011;57135;51.992;4.476;2023-02-28T11:55:25;5.18;;;5.18;;
69837;SDS011;57135;51.992;4.476;2023-02-28T12:11:56;5.08;;;5.08;;
69837;SDS011;57135;51.992;4.476;2023-02-28T12:28:13;5.14;;;5.14;;
69837;SDS011;57135;51.992;4.476;2023-02-28T12:30:46;5.36;;;5.36;;
69837;SDS011;57135;51.992;4.476;2023-02-28T12:33:19;5.30;;;5.30;;
69837;SDS011;57135;51.992;4.476;2023-02-28T12:43:16;5.79;;;5.79;;
69837;SDS011;57135;51.992;4.476;2023-02-28T12:48:15;5.61;;;5.61;;
69837;SDS011;57135;51.992;4.476;2023-02-28T12:50:45;5.55;;;5.55;;
69837;SDS011;57135;51.992;4.476;2023-02-28T12:58:41;5.00;;;5.00;;
69837;SDS011;57135;51.992;4.476;2023-02-28T13:09:16;5.20;;;5.20;;
69837;SDS011;57135;51.992;4.476;2023-02-28T13:11:47;4.90;;;4.90;;
69837;SDS011;57135;51.992;4.476;2023-02-28T13:14:18;5.02;;;5.02;;
69837;SDS011;57135;51.992;4.476;2023-02-28T13:16:56;5.19;;;5.19;;
69837;SDS011;57135;51.992;4.476;2023-02-28T13:19:36;4.94;;;4.94;;
69837;SDS011;57135;51.992;4.476;2023-02-28T13:22:53;5.28;;;5.28;;
69837;SDS011;57135;51.992;4.476;2023-02-28T13:27:56;5.55;;;5.55;;
69837;SDS011;57135;51.992;4.476;2023-02-28T13:33:28;5.65;;;5.65;;
69837;SDS011;57135;51.992;4.476;2023-02-28T13:36:11;5.78;;;5.78;;
69837;SDS011;57135;51.992;4.476;2023-02-28T13:38:51;5.32;;;5.32;;
69837;SDS011;57135;51.992;4.476;2023-02-28T13:46:34;5.69;;;5.69;;
69837;SDS011;57135;51.992;4.476;2023-02-28T13:57:22;5.52;;;5.52;;
69837;SDS011;57135;51.992;4.476;2023-02-28T14:05:36;6.24;;;6.24;;
69837;SDS011;57135;51.992;4.476;2023-02-28T14:08:12;5.75;;;5.75;;
69837;SDS011;57135;51.992;4.476;2023-02-28T14:10:46;5.82;;;5.82;;
69837;SDS011;57135;51.992;4.476;2023-02-28T14:16:04;6.14;;;6.14;;
69837;SDS011;57135;51.992;4.476;2023-02-28T14:18:35;5.95;;;5.95;;
69837;SDS011;57135;51.992;4.476;2023-02-28T14:21:09;5.90;;;5.90;;
69837;SDS011;57135;51.992;4.476;2023-02-28T14:23:46;5.94;;;5.94;;
69837;SDS011;57135;51.992;4.476;2023-02-28T14:26:55;5.94;;;5.94;;
69837;SDS011;57135;51.992;4.476;2023-02-28T14:30:03;6.12;;;6.12;;
69837;SDS011;57135;51.992;4.476;2023-02-28T14:38:30;6.30;;;6.30;;
69837;SDS011;57135;51.992;4.476;2023-02-28T14:41:03;6.62;;;6.62;;
69837;SDS011;57135;51.992;4.476;2023-02-28T14:43:32;6.49;;;6.49;;
69837;SDS011;57135;51.992;4.476;2023-02-28T14:46:02;6.41;;;6.41;;
69837;SDS011;57135;51.992;4.476;2023-02-28T14:48:29;6.20;;;6.20;;
69837;SDS011;57135;51.992;4.476;2023-02-28T14:50:59;5.77;;;5.77;;
69837;SDS011;57135;51.992;4.476;2023-02-28T14:53:26;5.32;;;5.32;;
69837;SDS011;57135;51.992;4.476;2023-02-28T14:55:54;5.33;;;5.33;;
69837;SDS011;57135;51.992;4.476;2023-02-28T15:00:51;5.11;;;5.11;;
69837;SDS011;57135;51.992;4.476;2023-02-28T15:05:57;5.05;;;5.05;;
69837;SDS011;57135;51.992;4.476;2023-02-28T15:08:28;5.13;;;5.13;;
69837;SDS011;57135;51.992;4.476;2023-02-28T15:10:58;5.13;;;5.13;;
69837;SDS011;57135;51.992;4.476;2023-02-28T15:13:36;4.98;;;4.98;;
69837;SDS011;57135;51.992;4.476;2023-02-28T15:16:16;5.01;;;5.01;;
69837;SDS011;57135;51.992;4.476;2023-02-28T15:21:20;5.30;;;5.30;;
69837;SDS011;57135;51.992;4.476;2023-02-28T15:23:58;5.30;;;5.30;;
69837;SDS011;57135;51.992;4.476;2023-02-28T15:26:50;5.11;;;5.11;;
69837;SDS011;57135;51.992;4.476;2023-02-28T15:29:20;5.33;;;5.33;;
69837;SDS011;57135;51.992;4.476;2023-02-28T15:31:49;5.06;;;5.06;;
69837;SDS011;57135;51.992;4.476;2023-02-28T15:34:36;5.22;;;5.22;;
69837;SDS011;57135;51.992;4.476;2023-02-28T15:37:24;4.97;;;4.97;;
69837;SDS011;57135;51.992;4.476;2023-02-28T15:40:10;5.16;;;5.16;;
69837;SDS011;57135;51.992;4.476;2023-02-28T15:42:42;5.16;;;5.16;;
69837;SDS011;57135;51.992;4.476;2023-02-28T15:47:57;5.26;;;5.26;;
69837;SDS011;57135;51.992;4.476;2023-02-28T15:50:23;5.10;;;5.10;;
69837;SDS011;57135;51.992;4.476;2023-02-28T15:52:49;5.10;;;5.10;;
69837;SDS011;57135;51.992;4.476;2023-02-28T15:57:44;5.17;;;5.17;;
69837;SDS011;57135;51.992;4.476;2023-02-28T16:00:14;5.18;;;5.18;;
69837;SDS011;57135;51.992;4.476;2023-02-28T16:02:44;5.45;;;5.45;;
69837;SDS011;57135;51.992;4.476;2023-02-28T16:07:38;5.69;;;5.69;;
69837;SDS011;57135;51.992;4.476;2023-02-28T16:10:10;6.44;;;6.44;;
69837;SDS011;57135;51.992;4.476;2023-02-28T16:12:37;5.89;;;5.89;;
69837;SDS011;57135;51.992;4.476;2023-02-28T16:15:20;6.54;;;6.54;;
69837;SDS011;57135;51.992;4.476;2023-02-28T16:17:51;6.50;;;6.49;;
69837;SDS011;57135;51.992;4.476;2023-02-28T16:20:25;6.61;;;6.61;;
69837;SDS011;57135;51.992;4.476;2023-02-28T16:22:53;6.81;;;6.81;;
69837;SDS011;57135;51.992;4.476;2023-02-28T16:25:20;6.74;;;6.74;;
69837;SDS011;57135;51.992;4.476;2023-02-28T16:27:49;6.98;;;6.98;;
69837;SDS011;57135;51.992;4.476;2023-02-28T16:30:25;6.66;;;6.66;;
69837;SDS011;57135;51.992;4.476;2023-02-28T16:32:52;7.28;;;7.28;;
69837;SDS011;57135;51.992;4.476;2023-02-28T16:35:21;7.84;;;7.84;;
69837;SDS011;57135;51.992;4.476;2023-02-28T16:37:47;7.79;;;7.79;;
69837;SDS011;57135;51.992;4.476;2023-02-28T16:40:17;8.26;;;8.26;;
69837;SDS011;57135;51.992;4.476;2023-02-28T16:42:46;8.29;;;8.29;;
69837;SDS011;57135;51.992;4.476;2023-02-28T16:45:15;7.70;;;7.70;;
69837;SDS011;57135;51.992;4.476;2023-02-28T16:47:53;7.75;;;7.75;;
69837;SDS011;57135;51.992;4.476;2023-02-28T16:50:22;7.79;;;7.79;;
69837;SDS011;57135;51.992;4.476;2023-02-28T16:52:50;7.50;;;7.50;;
69837;SDS011;57135;51.992;4.476;2023-02-28T16:55:17;7.24;;;7.24;;
69837;SDS011;57135;51.992;4.476;2023-02-28T16:57:44;7.02;;;7.02;;
69837;SDS011;57135;51.992;4.476;2023-02-28T17:00:17;7.04;;;7.04;;
69837;SDS011;57135;51.992;4.476;2023-02-28T17:02:43;7.50;;;7.50;;
69837;SDS011;57135;51.992;4.476;2023-02-28T17:05:10;7.29;;;7.29;;
69837;SDS011;57135;51.992;4.476;2023-02-28T17:07:36;7.78;;;7.78;;
69837;SDS011;57135;51.992;4.476;2023-02-28T17:10:02;7.51;;;7.51;;
69837;SDS011;57135;51.992;4.476;2023-02-28T17:12:33;7.96;;;7.96;;
69837;SDS011;57135;51.992;4.476;2023-02-28T17:14:59;7.86;;;7.86;;
69837;SDS011;57135;51.992;4.476;2023-02-28T17:17:25;7.91;;;7.91;;
69837;SDS011;57135;51.992;4.476;2023-02-28T17:19:51;8.34;;;8.34;;
69837;SDS011;57135;51.992;4.476;2023-02-28T17:22:16;7.94;;;7.94;;
69837;SDS011;57135;51.992;4.476;2023-02-28T17:24:42;7.98;;;7.98;;
69837;SDS011;57135;51.992;4.476;2023-02-28T17:27:09;8.38;;;8.38;;
69837;SDS011;57135;51.992;4.476;2023-02-28T17:29:37;8.85;;;8.85;;
69837;SDS011;57135;51.992;4.476;2023-02-28T17:32:03;9.28;;;9.28;;
69837;SDS011;57135;51.992;4.476;2023-02-28T17:34:29;9.86;;;9.86;;
69837;SDS011;57135;51.992;4.476;2023-02-28T17:36:54;9.86;;;9.86;;
69837;SDS011;57135;51.992;4.476;2023-02-28T17:39:19;10.69;;;10.69;;
69837;SDS011;57135;51.992;4.476;2023-02-28T17:41:50;11.31;;;11.31;;
69837;SDS011;57135;51.992;4.476;2023-02-28T17:44:17;11.32;;;11.32;;
69837;SDS011;57135;51.992;4.476;2023-02-28T17:46:43;10.39;;;10.39;;
69837;SDS011;57135;51.992;4.476;2023-02-28T17:49:10;10.16;;;10.16;;
69837;SDS011;57135;51.992;4.476;2023-02-28T17:51:35;9.61;;;9.61;;
69837;SDS011;57135;51.992;4.476;2023-02-28T17:54:01;9.35;;;9.35;;
69837;SDS011;57135;51.992;4.476;2023-02-28T17:56:26;9.54;;;9.54;;